createdAt,value
2022-08-12T00:02:02.810Z,25.01
2022-08-12T00:05:14.283Z,25.15
2022-08-12T00:08:16.461Z,25.29
2022-08-12T00:11:23.286Z,25.42
2022-08-12T00:14:22.822Z,25.32
2022-08-12T00:17:29.522Z,25.27
2022-08-12T00:20:29.734Z,25.10
2022-08-12T00:23:38.544Z,24.76
2022-08-12T00:26:42.958Z,24.63
2022-08-12T00:29:49.710Z,24.56
2022-08-12T00:32:54.859Z,24.48
2022-08-12T00:36:02.902Z,24.73
2022-08-12T00:39:03.459Z,24.64
2022-08-12T00:42:13.419Z,24.59
2022-08-12T00:44:54.483Z,24.48
2022-08-12T00:47:42.604Z,24.41
2022-08-12T00:50:26.828Z,24.37
2022-08-12T00:53:19.159Z,24.35
2022-08-12T00:56:15.825Z,24.38
2022-08-12T00:59:03.738Z,24.47
2022-08-12T01:02:10.504Z,24.61
2022-08-12T01:05:22.135Z,24.49
2022-08-12T01:08:21.926Z,24.50
2022-08-12T01:11:28.234Z,24.42
2022-08-12T01:14:09.465Z,24.22
2022-08-12T01:16:59.122Z,23.93
2022-08-12T01:19:40.482Z,23.75
2022-08-12T01:22:47.584Z,23.72
2022-08-12T01:25:31.868Z,23.90
2022-08-12T01:28:24.092Z,23.75
2022-08-12T01:31:15.825Z,23.69
2022-08-12T01:34:28.574Z,23.68
2022-08-12T01:37:19.890Z,23.55
2022-08-12T01:40:33.230Z,23.49
2022-08-12T01:43:16.494Z,23.42
2022-08-12T01:46:16.592Z,23.48
2022-08-12T01:49:03.878Z,23.56
2022-08-12T01:52:21.473Z,23.42
2022-08-12T01:55:13.526Z,23.34
2022-08-12T01:58:18.630Z,23.27
2022-08-12T02:01:16.090Z,23.36
2022-08-12T02:04:41.539Z,23.40
2022-08-12T02:08:13.257Z,23.40
2022-08-12T02:11:24.849Z,23.41
2022-08-12T02:14:48.528Z,23.21
2022-08-12T02:17:57.046Z,23.18
2022-08-12T02:20:51.676Z,23.09
2022-08-12T02:23:34.864Z,23.00
2022-08-12T02:26:25.508Z,23.18
2022-08-12T02:29:08.254Z,23.13
2022-08-12T02:31:57.539Z,23.26
2022-08-12T02:34:39.619Z,23.15
2022-08-12T02:37:31.028Z,23.05
2022-08-12T02:40:14.102Z,22.94
2022-08-12T02:43:09.554Z,22.79
2022-08-12T02:46:10.464Z,22.79
2022-08-12T02:49:07.538Z,22.80
2022-08-12T02:51:54.993Z,22.84
2022-08-12T02:54:50.567Z,22.85
2022-08-12T02:57:38.664Z,22.79
2022-08-12T03:00:23.668Z,22.71
2022-08-12T03:03:16.283Z,22.72
2022-08-12T03:06:08.530Z,22.73
2022-08-12T03:09:03.693Z,22.70
2022-08-12T03:11:53.072Z,22.64
2022-08-12T03:14:45.555Z,22.50
2022-08-12T03:18:24.678Z,22.41
2022-08-12T03:21:06.672Z,22.41
2022-08-12T03:23:48.555Z,22.33
2022-08-12T03:26:39.037Z,22.39
2022-08-12T03:29:22.551Z,22.38
2022-08-12T03:32:36.043Z,22.36
2022-08-12T03:35:39.880Z,22.35
2022-08-12T03:38:30.539Z,22.34
2022-08-12T03:41:36.563Z,22.26
2022-08-12T03:44:57.509Z,22.31
2022-08-12T03:47:56.594Z,22.30
2022-08-12T03:51:04.695Z,22.29
2022-08-12T03:54:04.720Z,22.27
2022-08-12T03:57:10.588Z,22.21
2022-08-12T04:00:10.947Z,22.19
2022-08-12T04:03:32.290Z,22.22
2022-08-12T04:06:17.971Z,22.27
2022-08-12T04:09:27.679Z,22.24
2022-08-12T04:12:39.523Z,21.96
2022-08-12T04:15:29.249Z,21.81
2022-08-12T04:18:09.684Z,21.75
2022-08-12T04:20:57.713Z,21.76
2022-08-12T04:23:45.084Z,21.78
2022-08-12T04:26:36.723Z,21.89
2022-08-12T04:29:19.002Z,22.06
2022-08-12T04:32:07.706Z,21.87
2022-08-12T04:34:50.636Z,21.83
2022-08-12T04:38:00.409Z,21.98
2022-08-12T04:40:42.595Z,21.91
2022-08-12T04:44:01.239Z,21.94
2022-08-12T04:46:34.321Z,21.89
2022-08-12T04:49:24.322Z,21.77
2022-08-12T04:52:06.747Z,21.73
2022-08-12T04:55:02.625Z,21.75
2022-08-12T04:57:50.348Z,21.86
2022-08-12T05:00:33.110Z,21.85
2022-08-12T05:03:20.600Z,21.88
2022-08-12T05:06:01.731Z,21.80
2022-08-12T05:08:48.608Z,21.91
2022-08-12T05:11:33.871Z,22.35
2022-08-12T05:14:20.644Z,22.93
2022-08-12T05:17:01.767Z,23.46
2022-08-12T05:19:57.445Z,24.10
2022-08-12T05:22:42.097Z,24.73
2022-08-12T05:25:31.654Z,25.48
2022-08-12T05:28:13.179Z,26.30
2022-08-12T05:31:06.678Z,27.06
2022-08-12T05:33:48.609Z,27.82
2022-08-12T05:36:35.624Z,28.43
2022-08-12T05:39:16.890Z,28.86
2022-08-12T05:42:04.623Z,29.40
2022-08-12T05:44:47.299Z,30.07
2022-08-12T05:47:52.276Z,30.71
2022-08-12T05:50:35.728Z,31.39
2022-08-12T05:53:26.654Z,32.11
2022-08-12T05:56:40.684Z,32.84
2022-08-12T05:59:28.660Z,33.56
2022-08-12T06:02:13.453Z,34.16
2022-08-12T06:05:04.646Z,34.80
2022-08-12T06:08:01.258Z,35.33
2022-08-12T06:10:52.729Z,35.82
2022-08-12T06:13:53.680Z,36.23
2022-08-12T06:16:43.189Z,36.59
2022-08-12T06:19:25.279Z,36.85
2022-08-12T06:22:34.062Z,37.02
2022-08-12T06:25:21.683Z,37.16
2022-08-12T06:28:10.691Z,37.27
2022-08-12T06:31:22.261Z,37.54
2022-08-12T06:35:23.080Z,37.83
2022-08-12T06:37:07.423Z,38.04
2022-08-12T06:39:59.075Z,38.20
2022-08-12T06:42:52.219Z,38.48
2022-08-12T06:45:45.805Z,38.64
2022-08-12T06:48:27.814Z,38.91
2022-08-12T06:51:16.683Z,39.18
2022-08-12T06:54:00.150Z,39.26
2022-08-12T06:57:03.500Z,39.33
2022-08-12T06:59:45.812Z,39.42
2022-08-12T07:02:37.028Z,39.45
2022-08-12T07:05:25.275Z,39.36
2022-08-12T07:08:13.701Z,39.49
2022-08-12T07:10:59.639Z,39.63
2022-08-12T07:14:12.433Z,40.00
2022-08-12T07:16:53.729Z,40.27
2022-08-12T07:19:45.639Z,40.69
2022-08-12T07:22:30.279Z,41.08
2022-08-12T07:25:40.489Z,41.47
2022-08-12T07:28:28.261Z,41.86
2022-08-12T07:31:18.356Z,42.02
2022-08-12T07:33:59.990Z,42.14
2022-08-12T07:36:49.092Z,42.09
2022-08-12T07:39:30.338Z,42.20
2022-08-12T07:42:18.148Z,42.28
2022-08-12T07:44:59.569Z,41.80
2022-08-12T07:47:50.098Z,41.08
2022-08-12T07:50:30.909Z,40.87
2022-08-12T07:53:18.087Z,40.26
2022-08-12T07:56:12.784Z,40.21
2022-08-12T08:02:03.790Z,39.26
2022-08-12T08:05:03.742Z,38.32
2022-08-12T08:07:44.904Z,38.07
2022-08-12T08:10:33.129Z,38.27
2022-08-12T08:13:15.432Z,38.50
2022-08-12T08:16:06.852Z,38.56
2022-08-12T08:18:56.104Z,38.76
2022-08-12T08:24:57.633Z,39.16
2022-08-12T08:27:52.803Z,38.83
2022-08-12T08:30:34.930Z,38.62
2022-08-12T08:34:01.594Z,38.54
2022-08-12T08:36:25.515Z,38.76
2022-08-12T08:39:18.563Z,39.04
2022-08-12T08:42:20.675Z,39.06
2022-08-12T08:45:19.791Z,39.19
2022-08-12T08:48:01.568Z,38.35
2022-08-12T08:51:04.430Z,38.61
2022-08-12T08:53:52.746Z,38.76
2022-08-12T08:56:50.762Z,38.68
2022-08-12T08:59:32.401Z,38.67
2022-08-12T09:02:20.587Z,38.57
2022-08-12T09:05:12.892Z,38.36
2022-08-12T09:08:15.439Z,38.19
2022-08-12T09:14:31.823Z,37.50
2022-08-12T09:17:14.186Z,36.84
2022-08-12T09:20:10.790Z,35.86
2022-08-12T09:22:57.074Z,35.85
2022-08-12T09:25:48.423Z,35.35
2022-08-12T09:28:37.009Z,35.14
2022-08-12T09:32:08.006Z,35.58
2022-08-12T09:34:33.563Z,36.11
2022-08-12T09:37:22.354Z,35.97
2022-08-12T09:41:01.725Z,36.11
2022-08-12T09:43:34.607Z,36.32
2022-08-12T09:46:25.238Z,36.05
2022-08-12T09:49:16.621Z,36.47
2022-08-12T09:51:58.690Z,36.62
2022-08-12T09:54:48.315Z,36.25
2022-08-12T09:58:46.719Z,35.27
2022-08-12T10:00:51.805Z,34.63
2022-08-12T10:04:03.174Z,34.64
2022-08-12T10:06:54.308Z,35.04
2022-08-12T10:09:58.027Z,34.60
2022-08-12T10:13:06.965Z,34.91
2022-08-12T10:15:57.992Z,35.47
2022-08-12T10:18:51.883Z,35.38
2022-08-12T10:21:45.137Z,35.57
2022-08-12T10:24:27.950Z,34.99
2022-08-12T10:27:39.556Z,34.43
2022-08-12T10:30:41.773Z,34.74
2022-08-12T10:33:33.665Z,34.83
2022-08-12T10:36:36.127Z,34.05
2022-08-12T10:40:02.009Z,34.12
2022-08-12T10:42:52.933Z,34.12
2022-08-12T10:45:42.409Z,33.80
2022-08-12T10:48:34.263Z,33.59
2022-08-12T10:52:03.592Z,33.45
2022-08-12T10:54:26.881Z,33.65
2022-08-12T10:57:18.416Z,33.38
2022-08-12T11:00:32.752Z,33.48
2022-08-12T11:04:27.907Z,33.78
2022-08-12T11:07:05.722Z,34.33
2022-08-12T11:09:42.082Z,34.49
2022-08-12T11:12:58.407Z,34.06
2022-08-12T11:16:19.531Z,34.31
2022-08-12T11:18:46.220Z,34.30
2022-08-12T11:21:58.304Z,34.14
2022-08-12T11:24:41.913Z,34.28
2022-08-12T11:27:38.964Z,34.27
2022-08-12T11:30:31.145Z,34.12
2022-08-12T11:33:24.444Z,34.12
2022-08-12T11:36:22.083Z,34.17
2022-08-12T11:39:12.934Z,34.34
2022-08-12T11:41:54.126Z,34.55
2022-08-12T11:44:43.430Z,34.57
2022-08-12T11:47:26.335Z,34.93
2022-08-12T11:50:18.878Z,34.37
2022-08-12T11:52:59.983Z,34.05
2022-08-12T11:55:57.876Z,33.81
2022-08-12T12:01:58.109Z,34.03
2022-08-12T12:02:02.421Z,34.56
2022-08-12T12:04:58.855Z,34.74
2022-08-12T12:08:41.203Z,34.76
2022-08-12T12:10:47.924Z,34.54
2022-08-12T12:14:06.879Z,34.80
2022-08-12T12:16:39.544Z,34.78
2022-08-12T12:19:23.060Z,34.94
2022-08-12T12:22:23.583Z,34.99
2022-08-12T12:25:09.042Z,34.98
2022-08-12T12:28:05.992Z,34.91
2022-08-12T12:30:54.650Z,34.90
2022-08-12T12:33:56.938Z,34.44
2022-08-12T12:36:39.196Z,34.55
2022-08-12T12:39:27.663Z,34.54
2022-08-12T12:42:43.138Z,34.58
2022-08-12T12:45:26.127Z,34.64
2022-08-12T12:48:16.251Z,34.67
2022-08-12T12:51:51.753Z,34.53
2022-08-12T12:54:28.941Z,34.70
2022-08-12T12:57:21.794Z,34.91
2022-08-12T13:00:24.960Z,35.14
2022-08-12T13:03:18.996Z,34.81
2022-08-12T13:06:01.160Z,34.66
2022-08-12T13:08:51.082Z,34.61
2022-08-12T13:11:41.765Z,34.51
2022-08-12T13:14:31.992Z,34.37
2022-08-12T13:17:19.842Z,34.33
2022-08-12T13:20:12.307Z,34.37
2022-08-12T13:23:35.867Z,34.58
2022-08-12T13:26:23.970Z,34.75
2022-08-12T13:29:11.305Z,34.81
2022-08-12T13:32:18.738Z,34.93
2022-08-12T13:35:04.381Z,34.90
2022-08-12T13:38:07.059Z,34.70
2022-08-12T13:40:49.126Z,34.50
2022-08-12T13:43:41.292Z,34.35
2022-08-12T13:46:23.140Z,34.48
2022-08-12T13:49:17.237Z,34.56
2022-08-12T13:52:02.126Z,34.59
2022-08-12T13:54:56.382Z,34.49
2022-08-12T13:57:47.134Z,34.52
2022-08-12T14:00:39.024Z,34.39
2022-08-12T14:03:50.992Z,34.20
2022-08-12T14:06:30.391Z,34.26
2022-08-12T14:09:20.089Z,34.28
2022-08-12T14:12:03.234Z,34.34
2022-08-12T14:14:55.487Z,34.48
2022-08-12T14:17:38.798Z,34.46
2022-08-12T14:20:28.439Z,34.39
2022-08-12T14:24:01.587Z,34.20
2022-08-12T14:26:24.988Z,34.16
2022-08-12T14:29:05.995Z,34.16
2022-08-12T14:31:56.083Z,34.34
2022-08-12T14:34:37.753Z,34.29
2022-08-12T14:37:56.898Z,34.34
2022-08-12T14:40:28.464Z,34.38
2022-08-12T14:43:17.112Z,34.38
2022-08-12T14:45:59.743Z,34.10
2022-08-12T14:48:52.734Z,33.99
2022-08-12T14:53:11.632Z,34.09
2022-08-12T14:56:59.270Z,34.23
2022-08-12T14:58:02.123Z,34.27
2022-08-12T15:01:03.380Z,34.24
2022-08-12T15:04:26.201Z,34.30
2022-08-12T15:07:07.109Z,34.27
2022-08-12T15:10:31.139Z,34.27
2022-08-12T15:13:15.091Z,34.26
2022-08-12T15:16:03.399Z,34.29
2022-08-12T15:18:55.282Z,34.26
2022-08-12T15:22:35.788Z,34.08
2022-08-12T15:24:48.907Z,33.97
2022-08-12T15:28:04.006Z,33.96
2022-08-12T15:30:38.128Z,33.85
2022-08-12T15:33:45.294Z,33.94
2022-08-12T15:36:55.258Z,34.06
2022-08-12T15:39:37.219Z,34.22
2022-08-12T15:42:18.155Z,34.28
2022-08-12T15:45:08.627Z,34.24
2022-08-12T15:48:16.483Z,34.26
2022-08-12T15:51:02.847Z,34.30
2022-08-12T15:54:02.955Z,34.32
2022-08-12T15:56:52.403Z,34.30
2022-08-12T15:59:51.559Z,34.28
2022-08-12T16:02:54.070Z,34.35
2022-08-12T16:06:11.026Z,34.36
2022-08-12T16:08:48.035Z,34.31
2022-08-12T16:11:41.363Z,34.33
2022-08-12T16:14:30.400Z,34.33
2022-08-12T16:17:15.431Z,34.32
2022-08-12T16:20:05.794Z,34.30
2022-08-12T16:22:48.035Z,34.34
2022-08-12T16:26:02.711Z,34.32
2022-08-12T16:28:41.184Z,34.22
2022-08-12T16:31:30.809Z,34.17
2022-08-12T16:34:26.159Z,34.17
2022-08-12T16:37:32.662Z,34.05
2022-08-12T16:40:29.169Z,34.03
2022-08-12T16:43:33.565Z,34.04
2022-08-12T16:46:32.546Z,33.97
2022-08-12T16:49:20.457Z,33.96
2022-08-12T16:52:07.950Z,34.05
2022-08-12T16:55:01.091Z,34.04
2022-08-12T16:57:53.982Z,33.97
2022-08-12T17:00:35.075Z,33.93
2022-08-12T17:03:28.877Z,33.87
2022-08-12T17:06:19.622Z,33.74
2022-08-12T17:09:17.276Z,33.75
2022-08-12T17:12:02.339Z,33.80
2022-08-12T17:14:53.103Z,33.73
2022-08-12T17:17:39.192Z,33.70
2022-08-12T17:20:37.407Z,33.63
2022-08-12T17:23:23.520Z,33.51
2022-08-12T17:26:12.235Z,33.46
2022-08-12T17:28:55.107Z,33.44
2022-08-12T17:32:00.765Z,33.47
2022-08-12T17:35:02.135Z,33.46
2022-08-12T17:37:50.890Z,33.37
2022-08-12T17:40:37.391Z,33.26
2022-08-12T17:43:54.762Z,33.19
2022-08-12T17:46:33.696Z,33.15
2022-08-12T17:50:03.497Z,33.12
2022-08-12T17:52:33.540Z,33.03
2022-08-12T17:55:40.214Z,32.96
2022-08-12T17:58:42.119Z,32.89
2022-08-12T18:01:39.271Z,32.78
2022-08-12T18:04:35.649Z,32.77
2022-08-12T18:07:28.006Z,32.74
2022-08-12T18:10:10.110Z,32.67
2022-08-12T18:12:58.531Z,32.63
2022-08-12T18:16:04.279Z,32.50
2022-08-12T18:18:51.935Z,32.38
2022-08-12T18:22:01.600Z,32.24
2022-08-12T18:24:48.292Z,32.09
2022-08-12T18:27:44.940Z,32.01
2022-08-12T18:30:42.275Z,31.95
2022-08-12T18:33:26.140Z,31.83
2022-08-12T18:36:22.160Z,31.80
2022-08-12T18:39:05.556Z,31.73
2022-08-12T18:41:53.687Z,31.63
2022-08-12T18:44:34.151Z,31.52
2022-08-12T18:47:23.771Z,31.37
2022-08-12T18:50:06.055Z,31.35
2022-08-12T18:53:02.519Z,31.30
2022-08-12T18:55:59.339Z,31.11
2022-08-12T18:58:59.350Z,31.03
2022-08-12T19:02:21.288Z,30.90
2022-08-12T19:04:50.495Z,30.69
2022-08-12T19:07:49.511Z,30.72
2022-08-12T19:10:50.758Z,30.64
2022-08-12T19:13:50.139Z,30.63
2022-08-12T19:16:50.129Z,30.36
2022-08-12T19:19:41.644Z,30.46
2022-08-12T19:22:32.267Z,30.33
2022-08-12T19:26:01.279Z,30.17
2022-08-12T19:28:41.354Z,30.12
2022-08-12T19:31:57.321Z,30.06
2022-08-12T19:38:04.398Z,29.70
2022-08-12T19:40:56.504Z,29.70
2022-08-12T19:43:59.133Z,29.63
2022-08-12T19:46:51.912Z,29.49
2022-08-12T19:49:34.499Z,29.52
2022-08-12T19:52:27.459Z,29.56
2022-08-12T19:55:19.913Z,29.34
2022-08-12T19:58:11.922Z,29.45
2022-08-12T20:00:59.197Z,29.34
2022-08-12T20:03:57.672Z,29.18
2022-08-12T20:06:51.588Z,29.07
2022-08-12T20:09:41.293Z,29.20
2022-08-12T20:12:32.578Z,29.03
2022-08-12T20:15:22.119Z,28.89
2022-08-12T20:18:07.193Z,29.13
2022-08-12T20:21:16.386Z,28.99
2022-08-12T20:24:05.204Z,28.99
2022-08-12T20:26:58.381Z,28.84
2022-08-12T20:29:46.281Z,28.80
2022-08-12T20:32:37.626Z,28.73
2022-08-12T20:36:06.013Z,28.79
2022-08-12T20:38:40.544Z,28.66
2022-08-12T20:41:21.639Z,28.56
2022-08-12T20:44:17.073Z,28.52
2022-08-12T20:46:58.449Z,28.45
2022-08-12T20:49:56.022Z,28.27
2022-08-12T20:52:45.163Z,28.31
2022-08-12T20:55:43.686Z,28.25
2022-08-12T20:58:41.238Z,28.18
2022-08-12T21:01:46.609Z,28.02
2022-08-12T21:04:49.245Z,27.94
2022-08-12T21:07:40.903Z,27.91
2022-08-12T21:10:35.816Z,27.86
2022-08-12T21:13:26.737Z,27.69
2022-08-12T21:16:11.605Z,27.62
2022-08-12T21:19:01.173Z,27.63
2022-08-12T21:21:50.502Z,27.56
2022-08-12T21:24:46.641Z,27.41
2022-08-12T21:27:59.337Z,27.32
2022-08-12T21:30:39.160Z,27.46
2022-08-12T21:33:23.235Z,27.34
2022-08-12T21:36:22.830Z,27.43
2022-08-12T21:39:21.612Z,27.37
2022-08-12T21:42:11.403Z,27.25
2022-08-12T21:45:45.457Z,27.24
2022-08-12T21:48:05.859Z,27.14
2022-08-12T21:50:47.822Z,27.10
2022-08-12T21:54:07.583Z,26.99
2022-08-12T21:56:57.259Z,26.85
2022-08-12T21:59:45.138Z,27.14
2022-08-12T22:02:48.489Z,26.98
2022-08-12T22:05:54.251Z,26.81
2022-08-12T22:08:38.256Z,26.78
2022-08-12T22:11:42.039Z,26.90
2022-08-12T22:14:27.059Z,26.82
2022-08-12T22:17:14.375Z,26.60
2022-08-12T22:20:01.278Z,26.67
2022-08-12T22:22:56.304Z,26.75
2022-08-12T22:25:40.037Z,26.66
2022-08-12T22:28:45.927Z,26.48
2022-08-12T22:31:29.043Z,26.35
2022-08-12T22:34:18.788Z,26.28
2022-08-12T22:37:00.025Z,26.26
2022-08-12T22:39:49.624Z,26.20
2022-08-12T22:42:51.491Z,26.36
2022-08-12T22:45:59.248Z,26.31
2022-08-12T22:48:50.246Z,26.19
2022-08-12T22:52:00.377Z,26.21
2022-08-12T22:55:00.203Z,26.10
2022-08-12T22:57:56.271Z,25.99
2022-08-12T23:00:45.320Z,26.14
2022-08-12T23:03:48.031Z,26.08
2022-08-12T23:06:41.664Z,26.05
2022-08-12T23:09:44.762Z,26.03
2022-08-12T23:12:55.674Z,25.98
2022-08-12T23:15:39.598Z,25.78
2022-08-12T23:18:35.311Z,25.62
2022-08-12T23:21:18.698Z,25.60
2022-08-12T23:24:13.821Z,25.49
2022-08-12T23:27:16.900Z,25.53
2022-08-12T23:30:18.914Z,25.61
2022-08-12T23:33:20.592Z,25.70
2022-08-12T23:36:17.694Z,25.65
2022-08-12T23:40:13.537Z,25.71
2022-08-12T23:42:22.371Z,25.63
2022-08-12T23:45:20.767Z,25.58
2022-08-12T23:48:31.219Z,25.59
2022-08-12T23:51:22.436Z,25.56
2022-08-12T23:54:17.850Z,25.23
2022-08-12T23:58:18.182Z,25.23
